createdAt,value
2019-03-31T00:01:47.475Z,99166.38
2019-03-31T00:04:15.983Z,99167.29
2019-03-31T00:06:44.459Z,99161.98
2019-03-31T00:09:12.951Z,99164.50
2019-03-31T00:11:41.539Z,99164.56
2019-03-31T00:14:10.026Z,99166.83
2019-03-31T00:16:38.578Z,99158.47
2019-03-31T00:19:07.197Z,99154.63
2019-03-31T00:21:35.756Z,99153.59
2019-03-31T00:24:04.281Z,99164.38
2019-03-31T00:26:32.822Z,99147.92
2019-03-31T00:29:01.320Z,99144.57
2019-03-31T00:31:29.818Z,99148.84
2019-03-31T00:33:58.324Z,99147.41
2019-03-31T00:36:26.793Z,99140.59
2019-03-31T00:38:55.300Z,99136.35
2019-03-31T00:41:23.771Z,99139.48
2019-03-31T00:43:52.274Z,99140.20
2019-03-31T00:46:20.768Z,99142.17
2019-03-31T00:48:49.233Z,99139.88
2019-03-31T00:51:17.749Z,99131.29
2019-03-31T00:53:46.226Z,99134.56
2019-03-31T00:56:14.741Z,99133.31
2019-03-31T00:58:43.320Z,99133.31
2019-03-31T01:01:14.144Z,99134.46
2019-03-31T01:03:42.625Z,99126.58
2019-03-31T01:06:12.733Z,99133.39
2019-03-31T01:08:41.212Z,99129.77
2019-03-31T01:11:12.776Z,99127.17
2019-03-31T01:13:41.351Z,99128.33
2019-03-31T01:16:12.662Z,99127.04
2019-03-31T01:18:41.400Z,99124.65
2019-03-31T01:21:10.055Z,99124.30
2019-03-31T01:23:38.582Z,99123.99
2019-03-31T01:26:07.464Z,99118.71
2019-03-31T01:28:36.014Z,99117.26
2019-03-31T01:31:04.658Z,99115.72
2019-03-31T01:33:33.219Z,99112.00
2019-03-31T01:36:01.728Z,99112.45
2019-03-31T01:38:30.285Z,99109.99
2019-03-31T01:40:58.800Z,99113.41
2019-03-31T01:43:27.280Z,99115.65
2019-03-31T01:45:55.961Z,99108.66
2019-03-31T01:48:24.435Z,99113.11
2019-03-31T01:50:52.937Z,99118.66
2019-03-31T01:53:21.416Z,99114.99
2019-03-31T01:55:49.987Z,99118.60
2019-03-31T01:58:18.468Z,99126.65
2019-03-31T02:00:54.207Z,99117.52
2019-03-31T02:03:22.753Z,99113.41
2019-03-31T02:05:51.405Z,99109.11
2019-03-31T02:08:20.063Z,99104.87
2019-03-31T02:10:48.583Z,99106.63
2019-03-31T02:13:17.062Z,99119.42
2019-03-31T02:15:45.575Z,99119.37
2019-03-31T02:18:14.061Z,99119.58
2019-03-31T02:20:42.564Z,99118.48
2019-03-31T02:23:11.105Z,99116.91
2019-03-31T02:25:39.614Z,99110.15
2019-03-31T02:28:08.093Z,99118.73
2019-03-31T02:30:36.600Z,99117.42
2019-03-31T02:33:05.088Z,99119.64
2019-03-31T02:35:33.579Z,99113.26
2019-03-31T02:38:02.061Z,99113.14
2019-03-31T02:40:30.641Z,99109.80
2019-03-31T02:42:59.192Z,99106.20
2019-03-31T02:45:27.690Z,99104.36
2019-03-31T02:47:56.164Z,99109.56
2019-03-31T02:50:36.686Z,99104.45
2019-03-31T02:53:05.165Z,99105.94
2019-03-31T02:55:33.739Z,99108.16
2019-03-31T02:58:02.355Z,99101.45
2019-03-31T03:00:32.059Z,99105.85
2019-03-31T03:03:01.969Z,99105.41
2019-03-31T03:05:32.458Z,99105.75
2019-03-31T03:08:01.821Z,99099.77
2019-03-31T03:10:31.996Z,99104.55
2019-03-31T03:13:01.979Z,99103.01
2019-03-31T03:15:32.576Z,99108.17
2019-03-31T03:18:01.053Z,99105.16
2019-03-31T03:20:29.554Z,99101.53
2019-03-31T03:22:58.034Z,99099.33
2019-03-31T03:25:26.540Z,99099.11
2019-03-31T03:27:55.023Z,99099.41
2019-03-31T03:30:23.625Z,99100.26
2019-03-31T03:33:13.313Z,99103.16
2019-03-31T03:35:22.484Z,99105.55
2019-03-31T03:37:50.952Z,99105.27
2019-03-31T03:40:19.456Z,99106.70
2019-03-31T03:42:47.944Z,99101.86
2019-03-31T03:45:16.447Z,99101.91
2019-03-31T03:47:44.942Z,99104.90
2019-03-31T03:50:13.427Z,99098.11
2019-03-31T03:52:41.928Z,99106.82
2019-03-31T03:55:10.547Z,99105.95
2019-03-31T03:57:39.062Z,99100.75
2019-03-31T04:00:09.116Z,99108.06
2019-03-31T04:02:37.621Z,99112.53
2019-03-31T04:05:06.741Z,99111.13
2019-03-31T04:07:35.261Z,99114.45
2019-03-31T04:10:06.777Z,99107.99
2019-03-31T04:12:35.278Z,99111.05
2019-03-31T04:15:03.823Z,99123.08
2019-03-31T04:17:32.321Z,99113.50
2019-03-31T04:20:00.826Z,99114.84
2019-03-31T04:22:29.330Z,99122.91
2019-03-31T04:24:57.811Z,99119.07
2019-03-31T04:27:26.334Z,99116.36
2019-03-31T04:29:54.793Z,99111.66
2019-03-31T04:32:23.309Z,99118.98
2019-03-31T04:34:51.794Z,99119.22
2019-03-31T04:37:20.287Z,99117.67
2019-03-31T04:39:48.780Z,99123.15
2019-03-31T04:42:17.279Z,99132.16
2019-03-31T04:44:45.758Z,99131.04
2019-03-31T04:47:14.270Z,99131.00
2019-03-31T04:49:42.754Z,99130.40
2019-03-31T04:52:11.252Z,99133.61
2019-03-31T04:54:39.729Z,99139.77
2019-03-31T04:57:08.242Z,99138.34
2019-03-31T04:59:36.727Z,99140.01
2019-03-31T05:02:05.226Z,99134.16
2019-03-31T05:04:33.708Z,99142.58
2019-03-31T05:07:02.210Z,99152.70
2019-03-31T05:09:30.686Z,99150.33
2019-03-31T05:11:59.189Z,99153.00
2019-03-31T05:14:27.669Z,99151.28
2019-03-31T05:16:56.173Z,99157.64
2019-03-31T05:19:24.653Z,99158.86
2019-03-31T05:21:53.157Z,99162.19
2019-03-31T05:24:21.640Z,99158.47
2019-03-31T05:26:50.141Z,99168.64
2019-03-31T05:29:18.619Z,99164.94
2019-03-31T05:31:47.133Z,99165.70
2019-03-31T05:34:19.212Z,99176.08
2019-03-31T05:36:45.836Z,99176.86
2019-03-31T05:39:14.311Z,99175.43
2019-03-31T05:41:42.821Z,99180.97
2019-03-31T05:44:11.300Z,99180.42
2019-03-31T05:46:39.812Z,99188.15
2019-03-31T05:49:08.290Z,99190.05
2019-03-31T05:51:36.823Z,99191.06
2019-03-31T05:54:05.295Z,99199.25
2019-03-31T05:56:33.814Z,99192.06
2019-03-31T05:59:02.291Z,99192.48
2019-03-31T06:01:30.793Z,99196.56
2019-03-31T06:03:59.275Z,99197.66
2019-03-31T06:06:27.786Z,99202.91
2019-03-31T06:08:56.265Z,99210.00
2019-03-31T06:11:24.769Z,99214.48
2019-03-31T06:13:53.245Z,99206.03
2019-03-31T06:16:21.722Z,99210.29
2019-03-31T06:18:50.226Z,99208.98
2019-03-31T06:21:18.698Z,99218.75
2019-03-31T06:23:47.202Z,99215.36
2019-03-31T06:26:15.682Z,99212.20
2019-03-31T06:28:44.194Z,99214.73
2019-03-31T06:31:12.681Z,99222.03
2019-03-31T06:33:41.186Z,99220.89
2019-03-31T06:36:09.669Z,99225.91
2019-03-31T06:38:38.183Z,99230.59
2019-03-31T06:41:06.738Z,99236.27
2019-03-31T06:43:35.243Z,99229.30
2019-03-31T06:46:03.735Z,99232.78
2019-03-31T06:48:32.238Z,99244.33
2019-03-31T06:51:00.724Z,99239.64
2019-03-31T06:53:29.232Z,99245.21
2019-03-31T06:55:57.717Z,99247.36
2019-03-31T06:58:26.214Z,99239.50
2019-03-31T07:00:54.688Z,99245.67
2019-03-31T07:03:23.197Z,99246.17
2019-03-31T07:05:51.764Z,99247.54
2019-03-31T07:08:20.259Z,99251.75
2019-03-31T07:10:48.734Z,99258.00
2019-03-31T07:13:17.249Z,99257.05
2019-03-31T07:15:45.732Z,99262.07
2019-03-31T07:18:15.981Z,99266.83
2019-03-31T07:20:44.591Z,99268.31
2019-03-31T07:23:13.099Z,99269.20
2019-03-31T07:25:41.586Z,99273.36
2019-03-31T07:28:10.110Z,99276.05
2019-03-31T07:30:38.605Z,99275.75
2019-03-31T07:33:07.119Z,99282.98
2019-03-31T07:35:38.812Z,99292.67
2019-03-31T07:38:05.851Z,99294.36
2019-03-31T07:40:34.335Z,99293.42
2019-03-31T07:43:02.900Z,99293.08
2019-03-31T07:45:31.405Z,99298.09
2019-03-31T07:47:59.904Z,99302.69
2019-03-31T07:50:28.535Z,99304.92
2019-03-31T07:52:57.072Z,99305.83
2019-03-31T07:55:25.560Z,99306.50
2019-03-31T07:57:54.699Z,99307.84
2019-03-31T08:00:25.476Z,99305.53
2019-03-31T08:02:54.069Z,99304.89
2019-03-31T08:05:33.030Z,99310.53
2019-03-31T08:07:52.773Z,99310.19
2019-03-31T08:10:21.492Z,99310.33
2019-03-31T08:12:50.000Z,99311.92
2019-03-31T08:15:19.050Z,99316.77
2019-03-31T08:17:47.560Z,99320.42
2019-03-31T08:20:18.636Z,99328.16
2019-03-31T08:22:47.418Z,99327.65
2019-03-31T08:25:16.740Z,99331.33
2019-03-31T08:27:45.250Z,99325.76
2019-03-31T08:30:15.085Z,99325.11
2019-03-31T08:32:43.596Z,99333.80
2019-03-31T08:35:13.618Z,99331.41
2019-03-31T08:37:42.117Z,99337.92
2019-03-31T08:40:11.844Z,99338.51
2019-03-31T08:42:40.361Z,99346.25
2019-03-31T08:45:10.119Z,99340.52
2019-03-31T08:47:38.895Z,99351.45
2019-03-31T08:50:08.234Z,99349.24
2019-03-31T08:52:36.801Z,99350.80
2019-03-31T08:55:06.429Z,99355.48
2019-03-31T08:57:35.151Z,99347.27
2019-03-31T09:00:05.303Z,99358.25
2019-03-31T09:02:34.969Z,99360.03
2019-03-31T09:05:04.705Z,99365.67
2019-03-31T09:07:33.181Z,99354.48
2019-03-31T09:10:01.769Z,99357.75
2019-03-31T09:12:30.245Z,99357.53
2019-03-31T09:14:58.753Z,99352.94
2019-03-31T09:17:27.234Z,99359.19
2019-03-31T09:19:55.812Z,99366.69
2019-03-31T09:22:24.303Z,99364.86
2019-03-31T09:24:52.817Z,99363.70
2019-03-31T09:27:21.376Z,99359.55
2019-03-31T09:29:49.892Z,99361.23
2019-03-31T09:32:18.384Z,99363.76
2019-03-31T09:34:46.971Z,99368.09
2019-03-31T09:37:15.447Z,99373.23
2019-03-31T09:39:43.962Z,99367.20
2019-03-31T09:42:12.440Z,99362.90
2019-03-31T09:44:40.955Z,99368.02
2019-03-31T09:47:09.438Z,99368.59
2019-03-31T09:49:37.943Z,99368.16
2019-03-31T09:52:06.426Z,99371.19
2019-03-31T09:54:34.932Z,99367.45
2019-03-31T09:57:03.589Z,99376.53
2019-03-31T09:59:32.090Z,99370.81
2019-03-31T10:02:00.572Z,99364.88
2019-03-31T10:04:29.075Z,99368.25
2019-03-31T10:06:57.823Z,99368.06
2019-03-31T10:09:26.407Z,99378.05
2019-03-31T10:11:54.891Z,99378.13
2019-03-31T10:14:23.396Z,99372.51
2019-03-31T10:16:51.878Z,99379.30
2019-03-31T10:19:20.391Z,99385.45
2019-03-31T10:21:48.879Z,99383.24
2019-03-31T10:24:17.390Z,99381.74
2019-03-31T10:26:45.878Z,99376.30
2019-03-31T10:29:14.386Z,99373.01
2019-03-31T10:31:43.239Z,99376.00
2019-03-31T10:34:11.753Z,99375.96
2019-03-31T10:36:44.767Z,99370.22
2019-03-31T10:39:10.544Z,99372.61
2019-03-31T10:41:39.023Z,99371.74
2019-03-31T10:44:07.535Z,99371.44
2019-03-31T10:46:36.074Z,99371.88
2019-03-31T10:49:04.722Z,99367.77
2019-03-31T10:51:33.284Z,99375.91
2019-03-31T10:54:04.472Z,99377.42
2019-03-31T10:56:31.999Z,99373.78
2019-03-31T10:59:00.503Z,99378.84
2019-03-31T11:01:28.985Z,99373.91
2019-03-31T11:03:57.565Z,99373.73
2019-03-31T11:06:26.047Z,99380.44
2019-03-31T11:08:54.635Z,99386.91
2019-03-31T11:11:23.113Z,99390.25
2019-03-31T11:13:51.619Z,99389.88
2019-03-31T11:16:20.104Z,99387.51
2019-03-31T11:18:48.603Z,99397.15
2019-03-31T11:21:24.450Z,99390.88
2019-03-31T11:23:52.954Z,99395.12
2019-03-31T11:26:21.437Z,99393.55
2019-03-31T11:28:49.950Z,99401.01
2019-03-31T11:31:18.442Z,99396.95
2019-03-31T11:33:46.919Z,99404.55
2019-03-31T11:36:15.427Z,99397.43
2019-03-31T11:38:43.906Z,99397.94
2019-03-31T11:41:12.419Z,99409.27
2019-03-31T11:43:40.893Z,99403.58
2019-03-31T11:46:09.403Z,99406.17
2019-03-31T11:48:37.959Z,99400.25
2019-03-31T11:51:06.464Z,99405.73
2019-03-31T11:53:34.942Z,99399.55
2019-03-31T11:56:03.442Z,99402.88
2019-03-31T11:58:32.461Z,99397.78
2019-03-31T12:01:01.106Z,99409.66
2019-03-31T12:03:31.141Z,99409.07
2019-03-31T12:05:59.970Z,99407.73
2019-03-31T12:08:28.521Z,99401.84
2019-03-31T12:10:57.030Z,99397.81
2019-03-31T12:13:25.509Z,99400.23
2019-03-31T12:15:54.018Z,99405.67
2019-03-31T12:18:22.496Z,99400.66
2019-03-31T12:20:51.016Z,99408.48
2019-03-31T12:23:19.486Z,99405.30
2019-03-31T12:25:47.993Z,99406.84
2019-03-31T12:28:16.474Z,99398.73
2019-03-31T12:30:44.999Z,99404.06
2019-03-31T12:33:13.478Z,99400.07
2019-03-31T12:35:41.984Z,99415.39
2019-03-31T12:38:10.528Z,99409.80
2019-03-31T12:40:39.384Z,99414.23
2019-03-31T12:43:07.934Z,99413.30
2019-03-31T12:45:36.450Z,99406.85
2019-03-31T12:48:05.069Z,99410.75
2019-03-31T12:50:33.581Z,99413.63
2019-03-31T12:53:02.061Z,99404.55
2019-03-31T12:55:30.571Z,99402.99
2019-03-31T12:57:59.054Z,99404.72
2019-03-31T13:00:27.577Z,99399.78
2019-03-31T13:02:56.114Z,99408.73
2019-03-31T13:05:24.621Z,99406.70
2019-03-31T13:07:56.608Z,99400.88
2019-03-31T13:10:23.330Z,99403.00
2019-03-31T13:12:51.810Z,99405.50
2019-03-31T13:15:20.314Z,99410.77
2019-03-31T13:17:48.803Z,99407.02
2019-03-31T13:20:17.644Z,99406.86
2019-03-31T13:22:46.995Z,99405.25
2019-03-31T13:25:15.496Z,99408.05
2019-03-31T13:27:43.977Z,99412.47
2019-03-31T13:30:12.545Z,99407.44
2019-03-31T13:32:41.021Z,99410.98
2019-03-31T13:35:09.986Z,99401.26
2019-03-31T13:37:38.453Z,99406.70
2019-03-31T13:40:08.023Z,99406.91
2019-03-31T13:42:36.575Z,99400.45
2019-03-31T13:45:08.342Z,99401.05
2019-03-31T13:47:36.829Z,99407.67
2019-03-31T13:50:09.478Z,99398.30
2019-03-31T13:52:38.021Z,99396.47
2019-03-31T13:55:10.311Z,99405.16
2019-03-31T13:57:40.033Z,99403.69
2019-03-31T14:00:11.181Z,99408.80
2019-03-31T14:02:40.526Z,99403.47
2019-03-31T14:05:09.574Z,99400.65
2019-03-31T14:07:38.052Z,99406.38
2019-03-31T14:10:08.000Z,99402.09
2019-03-31T14:12:36.477Z,99401.30
2019-03-31T14:15:18.900Z,99407.47
2019-03-31T14:17:38.474Z,99400.72
2019-03-31T14:20:07.589Z,99402.72
2019-03-31T14:22:36.097Z,99405.59
2019-03-31T14:25:06.223Z,99400.02
2019-03-31T14:27:34.725Z,99399.27
2019-03-31T14:30:05.152Z,99399.57
2019-03-31T14:32:33.663Z,99405.80
2019-03-31T14:35:02.150Z,99404.63
2019-03-31T14:37:30.663Z,99401.64
2019-03-31T14:39:59.150Z,99403.38
2019-03-31T14:42:27.672Z,99408.33
2019-03-31T14:44:56.217Z,99407.83
2019-03-31T14:47:24.721Z,99408.73
2019-03-31T14:49:53.208Z,99408.50
2019-03-31T14:52:27.471Z,99412.28
2019-03-31T14:54:51.927Z,99414.78
2019-03-31T14:57:20.430Z,99416.17
2019-03-31T14:59:48.911Z,99422.90
2019-03-31T15:02:17.419Z,99422.83
2019-03-31T15:04:45.897Z,99425.97
2019-03-31T15:07:14.407Z,99423.05
2019-03-31T15:09:42.887Z,99433.84
2019-03-31T15:12:11.385Z,99430.59
2019-03-31T15:14:39.950Z,99433.70
2019-03-31T15:17:08.471Z,99439.48
2019-03-31T15:19:36.948Z,99437.72
2019-03-31T15:22:05.453Z,99437.20
2019-03-31T15:24:33.937Z,99443.87
2019-03-31T15:27:02.444Z,99438.36
2019-03-31T15:29:30.934Z,99439.19
2019-03-31T15:31:59.428Z,99441.98
2019-03-31T15:34:27.907Z,99440.30
2019-03-31T15:36:56.415Z,99441.20
2019-03-31T15:39:24.908Z,99443.66
2019-03-31T15:41:53.410Z,99444.66
2019-03-31T15:44:21.895Z,99442.19
2019-03-31T15:46:50.405Z,99446.77
2019-03-31T15:49:18.890Z,99447.81
2019-03-31T15:51:47.391Z,99446.11
2019-03-31T15:54:17.449Z,99447.05
2019-03-31T15:56:46.031Z,99450.84
2019-03-31T15:59:14.510Z,99456.31
2019-03-31T16:01:43.089Z,99453.98
2019-03-31T16:04:11.625Z,99454.38
2019-03-31T16:06:40.098Z,99452.56
2019-03-31T16:09:22.368Z,99450.22
2019-03-31T16:11:52.875Z,99457.61
2019-03-31T16:14:09.154Z,99455.41
2019-03-31T16:16:37.652Z,99465.09
2019-03-31T16:19:06.130Z,99460.17
2019-03-31T16:21:34.639Z,99461.08
2019-03-31T16:24:03.119Z,99463.31
2019-03-31T16:26:31.626Z,99465.14
2019-03-31T16:29:00.108Z,99462.22
2019-03-31T16:31:28.661Z,99470.05
2019-03-31T16:33:57.145Z,99472.25
2019-03-31T16:36:25.656Z,99472.73
2019-03-31T16:38:54.144Z,99471.44
2019-03-31T16:41:22.641Z,99474.67
2019-03-31T16:43:51.121Z,99479.82
2019-03-31T16:46:19.642Z,99471.53
2019-03-31T16:48:48.126Z,99474.15
2019-03-31T16:51:16.612Z,99476.88
2019-03-31T16:53:45.198Z,99483.44
2019-03-31T16:56:13.678Z,99484.97
2019-03-31T16:58:42.180Z,99484.97
2019-03-31T17:01:10.662Z,99486.48
2019-03-31T17:03:39.174Z,99487.22
2019-03-31T17:06:07.655Z,99491.45
2019-03-31T17:08:36.161Z,99497.09
2019-03-31T17:11:05.589Z,99493.64
2019-03-31T17:13:34.309Z,99493.04
2019-03-31T17:16:02.859Z,99495.83
2019-03-31T17:18:31.379Z,99505.45
2019-03-31T17:20:59.872Z,99501.39
2019-03-31T17:23:28.376Z,99506.48
2019-03-31T17:25:56.856Z,99507.19
2019-03-31T17:28:25.365Z,99505.28
2019-03-31T17:30:53.845Z,99507.49
2019-03-31T17:33:22.346Z,99510.52
2019-03-31T17:35:50.820Z,99510.74
2019-03-31T17:38:19.319Z,99521.28
2019-03-31T17:40:47.798Z,99520.53
2019-03-31T17:43:16.311Z,99526.56
2019-03-31T17:45:44.788Z,99527.42
2019-03-31T17:48:13.300Z,99524.53
2019-03-31T17:50:41.777Z,99527.92
2019-03-31T17:53:10.272Z,99531.92
2019-03-31T17:55:38.749Z,99534.77
2019-03-31T17:58:07.256Z,99536.86
2019-03-31T18:00:35.736Z,99542.63
2019-03-31T18:03:04.314Z,99540.31
2019-03-31T18:05:32.791Z,99535.94
2019-03-31T18:08:01.295Z,99545.75
2019-03-31T18:10:29.781Z,99551.28
2019-03-31T18:12:58.284Z,99550.58
2019-03-31T18:15:26.759Z,99550.89
2019-03-31T18:17:55.271Z,99558.11
2019-03-31T18:20:23.752Z,99563.17
2019-03-31T18:22:52.258Z,99557.70
2019-03-31T18:25:20.754Z,99560.27
2019-03-31T18:27:49.265Z,99563.06
2019-03-31T18:30:18.183Z,99563.19
2019-03-31T18:32:46.688Z,99567.47
2019-03-31T18:35:16.937Z,99571.06
2019-03-31T18:37:45.401Z,99577.97
2019-03-31T18:40:14.039Z,99578.70
2019-03-31T18:42:42.553Z,99577.38
2019-03-31T18:45:11.176Z,99581.16
2019-03-31T18:47:39.700Z,99585.08
2019-03-31T18:50:08.448Z,99579.56
2019-03-31T18:52:36.952Z,99588.01
2019-03-31T18:55:24.370Z,99588.52
2019-03-31T18:57:54.524Z,99590.30
2019-03-31T19:00:24.656Z,99589.07
2019-03-31T19:03:06.779Z,99596.30
2019-03-31T19:05:53.917Z,99596.10
2019-03-31T19:08:36.105Z,99594.30
2019-03-31T19:11:15.544Z,99596.13
2019-03-31T19:13:55.871Z,99596.31
2019-03-31T19:16:35.305Z,99603.48
2019-03-31T19:19:06.066Z,99600.56
2019-03-31T19:21:52.712Z,99607.68
2019-03-31T19:24:38.700Z,99609.31
2019-03-31T19:27:14.567Z,99606.88
2019-03-31T19:29:59.712Z,99613.50
2019-03-31T19:32:38.948Z,99608.44
2019-03-31T19:35:21.520Z,99612.81
2019-03-31T19:37:54.637Z,99611.34
2019-03-31T19:40:41.528Z,99616.05
2019-03-31T19:43:18.151Z,99617.69
2019-03-31T19:45:53.949Z,99615.67
2019-03-31T19:48:40.809Z,99618.45
2019-03-31T19:51:19.772Z,99619.18
2019-03-31T19:53:59.368Z,99621.33
2019-03-31T19:56:29.515Z,99626.82
2019-03-31T19:59:15.863Z,99626.01
2019-03-31T20:02:04.147Z,99627.59
2019-03-31T20:04:34.290Z,99627.56
2019-03-31T20:07:07.507Z,99628.63
2019-03-31T20:09:53.850Z,99629.60
2019-03-31T20:12:26.433Z,99631.67
2019-03-31T20:15:13.449Z,99641.91
2019-03-31T20:17:43.903Z,99641.91
2019-03-31T20:20:19.821Z,99641.36
2019-03-31T20:23:01.995Z,99644.45
2019-03-31T20:25:32.296Z,99646.10
2019-03-31T20:28:02.820Z,99652.56
2019-03-31T20:30:41.774Z,99651.09
2019-03-31T20:33:28.069Z,99645.70
2019-03-31T20:36:14.064Z,99645.70
2019-03-31T20:38:44.209Z,99647.49
2019-03-31T20:41:32.540Z,99658.13
2019-03-31T20:44:01.282Z,99660.40
2019-03-31T20:46:29.760Z,99660.40
2019-03-31T20:48:58.257Z,99662.02
2019-03-31T20:51:26.735Z,99656.07
2019-03-31T20:53:55.251Z,99662.16
2019-03-31T20:56:23.747Z,99661.83
2019-03-31T20:58:52.440Z,99671.75
2019-03-31T21:01:20.914Z,99665.55
2019-03-31T21:03:49.423Z,99672.03
2019-03-31T21:06:17.962Z,99671.09
2019-03-31T21:08:46.759Z,99675.31
2019-03-31T21:11:15.242Z,99675.70
2019-03-31T21:13:44.059Z,99687.19
2019-03-31T21:16:12.535Z,99684.69
2019-03-31T21:18:41.043Z,99687.06
2019-03-31T21:21:09.515Z,99690.38
2019-03-31T21:23:38.015Z,99695.76
2019-03-31T21:26:06.494Z,99698.13
2019-03-31T21:28:35.005Z,99696.59
2019-03-31T21:31:03.473Z,99707.56
2019-03-31T21:33:31.962Z,99708.88
2019-03-31T21:36:00.432Z,99704.63
2019-03-31T21:38:28.911Z,99714.27
2019-03-31T21:40:57.414Z,99712.94
2019-03-31T21:43:25.886Z,99710.99
2019-03-31T21:45:54.381Z,99716.08
2019-03-31T21:48:22.855Z,99718.48
2019-03-31T21:50:51.347Z,99716.39
2019-03-31T21:53:19.907Z,99718.83
2019-03-31T21:55:48.405Z,99724.49
2019-03-31T21:58:16.873Z,99723.53
2019-03-31T22:00:55.584Z,99724.02
2019-03-31T22:03:24.054Z,99727.09
2019-03-31T22:05:52.692Z,99728.41
2019-03-31T22:08:21.160Z,99725.95
2019-03-31T22:10:49.660Z,99726.25
2019-03-31T22:13:18.134Z,99724.29
2019-03-31T22:15:47.041Z,99716.32
2019-03-31T22:18:15.829Z,99725.72
2019-03-31T22:20:47.331Z,99723.94
2019-03-31T22:23:14.664Z,99724.55
2019-03-31T22:25:43.173Z,99725.20
2019-03-31T22:28:11.646Z,99730.23
2019-03-31T22:30:40.136Z,99732.94
2019-03-31T22:33:08.617Z,99734.20
2019-03-31T22:35:37.113Z,99738.06
2019-03-31T22:38:05.589Z,99748.34
2019-03-31T22:40:34.097Z,99746.38
2019-03-31T22:43:02.567Z,99747.49
2019-03-31T22:45:31.070Z,99752.19
2019-03-31T22:47:59.545Z,99754.86
2019-03-31T22:50:28.048Z,99753.88
2019-03-31T22:52:56.520Z,99753.24
2019-03-31T22:55:25.015Z,99756.17
2019-03-31T22:57:53.488Z,99760.64
2019-03-31T23:00:23.767Z,99761.34
2019-03-31T23:02:52.236Z,99764.22
2019-03-31T23:05:20.741Z,99765.13
2019-03-31T23:07:49.210Z,99764.45
2019-03-31T23:10:17.707Z,99770.00
2019-03-31T23:12:46.180Z,99774.88
2019-03-31T23:15:14.749Z,99775.91
2019-03-31T23:17:43.220Z,99773.22
2019-03-31T23:20:11.726Z,99778.38
2019-03-31T23:22:40.184Z,99782.02
2019-03-31T23:25:08.754Z,99780.42
2019-03-31T23:27:37.226Z,99778.86
2019-03-31T23:30:09.008Z,99784.59
2019-03-31T23:32:37.546Z,99786.86
2019-03-31T23:35:07.385Z,99786.86
2019-03-31T23:37:35.864Z,99790.61
2019-03-31T23:40:05.001Z,99790.61
2019-03-31T23:42:33.812Z,99792.58
2019-03-31T23:45:02.377Z,99792.14
2019-03-31T23:47:30.850Z,99796.13
2019-03-31T23:49:59.349Z,99789.54
2019-03-31T23:52:27.823Z,99789.54
2019-03-31T23:54:56.322Z,99792.86
2019-03-31T23:57:41.660Z,99793.38
